sensor_id;sensor_type;location;lat;lon;timestamp;P1;durP1;ratioP1;P2;durP2;ratioP2
23814;SDS011;12088;53.078;8.720;2023-06-19T00:02:20;66.90;;;64.20;;
23814;SDS011;12088;53.078;8.720;2023-06-19T00:04:45;77.68;;;74.55;;
23814;SDS011;12088;53.078;8.720;2023-06-19T00:07:11;49.55;;;47.47;;
23814;SDS011;12088;53.078;8.720;2023-06-19T00:09:36;76.50;;;73.45;;
23814;SDS011;12088;53.078;8.720;2023-06-19T00:12:02;50.28;;;48.20;;
23814;SDS011;12088;53.078;8.720;2023-06-19T00:14:29;38.92;;;37.33;;
23814;SDS011;12088;53.078;8.720;2023-06-19T00:16:54;93.15;;;89.32;;
23814;SDS011;12088;53.078;8.720;2023-06-19T00:19:20;105.35;;;101.00;;
23814;SDS011;12088;53.078;8.720;2023-06-19T00:21:45;62.65;;;60.03;;
23814;SDS011;12088;53.078;8.720;2023-06-19T00:24:11;78.72;;;75.55;;
23814;SDS011;12088;53.078;8.720;2023-06-19T00:26:36;81.43;;;78.10;;
23814;SDS011;12088;53.078;8.720;2023-06-19T00:29:02;89.10;;;85.47;;
23814;SDS011;12088;53.078;8.720;2023-06-19T00:31:29;76.75;;;73.55;;
23814;SDS011;12088;53.078;8.720;2023-06-19T00:33:54;26.70;;;25.63;;
23814;SDS011;12088;53.078;8.720;2023-06-19T00:36:20;20.40;;;19.58;;
23814;SDS011;12088;53.078;8.720;2023-06-19T00:38:46;36.20;;;34.70;;
23814;SDS011;12088;53.078;8.720;2023-06-19T00:41:12;35.33;;;33.80;;
23814;SDS011;12088;53.078;8.720;2023-06-19T00:43:39;48.97;;;46.92;;
23814;SDS011;12088;53.078;8.720;2023-06-19T00:46:05;118.78;;;114.00;;
23814;SDS011;12088;53.078;8.720;2023-06-19T00:48:31;68.28;;;65.40;;
23814;SDS011;12088;53.078;8.720;2023-06-19T00:50:58;67.18;;;64.45;;
23814;SDS011;12088;53.078;8.720;2023-06-19T00:53:24;76.40;;;73.35;;
23814;SDS011;12088;53.078;8.720;2023-06-19T00:55:51;72.72;;;69.85;;
23814;SDS011;12088;53.078;8.720;2023-06-19T00:58:20;68.25;;;65.55;;
23814;SDS011;12088;53.078;8.720;2023-06-19T01:00:46;63.08;;;60.10;;
23814;SDS011;12088;53.078;8.720;2023-06-19T01:03:11;58.78;;;56.38;;
23814;SDS011;12088;53.078;8.720;2023-06-19T01:05:37;56.58;;;54.28;;
23814;SDS011;12088;53.078;8.720;2023-06-19T01:08:04;54.20;;;51.95;;
23814;SDS011;12088;53.078;8.720;2023-06-19T01:10:39;54.80;;;52.33;;
23814;SDS011;12088;53.078;8.720;2023-06-19T01:13:10;67.45;;;64.72;;
23814;SDS011;12088;53.078;8.720;2023-06-19T01:15:41;62.25;;;59.60;;
23814;SDS011;12088;53.078;8.720;2023-06-19T01:18:07;51.42;;;49.30;;
23814;SDS011;12088;53.078;8.720;2023-06-19T01:20:36;49.30;;;47.25;;
23814;SDS011;12088;53.078;8.720;2023-06-19T01:23:08;18.20;;;17.48;;
23814;SDS011;12088;53.078;8.720;2023-06-19T01:25:35;25.02;;;23.92;;
23814;SDS011;12088;53.078;8.720;2023-06-19T01:28:03;21.95;;;20.95;;
23814;SDS011;12088;53.078;8.720;2023-06-19T01:30:33;21.30;;;20.48;;
23814;SDS011;12088;53.078;8.720;2023-06-19T01:33:19;16.98;;;16.33;;
23814;SDS011;12088;53.078;8.720;2023-06-19T01:35:50;31.40;;;30.13;;
23814;SDS011;12088;53.078;8.720;2023-06-19T01:38:16;26.77;;;25.67;;
23814;SDS011;12088;53.078;8.720;2023-06-19T01:40:45;17.23;;;16.52;;
23814;SDS011;12088;53.078;8.720;2023-06-19T01:43:11;25.90;;;24.85;;
23814;SDS011;12088;53.078;8.720;2023-06-19T01:45:37;24.45;;;23.48;;
23814;SDS011;12088;53.078;8.720;2023-06-19T01:48:03;14.90;;;14.30;;
23814;SDS011;12088;53.078;8.720;2023-06-19T01:50:29;45.03;;;43.17;;
23814;SDS011;12088;53.078;8.720;2023-06-19T01:52:55;39.55;;;37.80;;
23814;SDS011;12088;53.078;8.720;2023-06-19T01:55:20;27.35;;;26.23;;
23814;SDS011;12088;53.078;8.720;2023-06-19T01:57:46;29.48;;;28.17;;
23814;SDS011;12088;53.078;8.720;2023-06-19T02:00:11;41.05;;;39.35;;
23814;SDS011;12088;53.078;8.720;2023-06-19T02:02:37;26.52;;;25.40;;
23814;SDS011;12088;53.078;8.720;2023-06-19T02:05:03;20.17;;;19.33;;
23814;SDS011;12088;53.078;8.720;2023-06-19T02:07:29;22.02;;;21.13;;
23814;SDS011;12088;53.078;8.720;2023-06-19T02:09:55;30.73;;;29.48;;
23814;SDS011;12088;53.078;8.720;2023-06-19T02:12:21;34.65;;;33.15;;
23814;SDS011;12088;53.078;8.720;2023-06-19T02:14:46;52.92;;;50.60;;
23814;SDS011;12088;53.078;8.720;2023-06-19T02:17:12;30.25;;;29.02;;
23814;SDS011;12088;53.078;8.720;2023-06-19T02:19:37;41.58;;;39.80;;
23814;SDS011;12088;53.078;8.720;2023-06-19T02:22:03;33.85;;;32.50;;
23814;SDS011;12088;53.078;8.720;2023-06-19T02:24:28;41.83;;;40.13;;
23814;SDS011;12088;53.078;8.720;2023-06-19T02:26:54;33.67;;;32.33;;
23814;SDS011;12088;53.078;8.720;2023-06-19T02:29:19;44.88;;;43.00;;
23814;SDS011;12088;53.078;8.720;2023-06-19T02:31:45;53.83;;;51.38;;
23814;SDS011;12088;53.078;8.720;2023-06-19T02:34:11;99.78;;;95.38;;
23814;SDS011;12088;53.078;8.720;2023-06-19T02:36:36;74.80;;;71.35;;
23814;SDS011;12088;53.078;8.720;2023-06-19T02:39:04;38.13;;;36.55;;
23814;SDS011;12088;53.078;8.720;2023-06-19T02:41:31;24.70;;;23.60;;
23814;SDS011;12088;53.078;8.720;2023-06-19T02:43:56;56.90;;;54.58;;
23814;SDS011;12088;53.078;8.720;2023-06-19T02:46:22;17.02;;;16.35;;
23814;SDS011;12088;53.078;8.720;2023-06-19T02:48:47;16.80;;;16.10;;
23814;SDS011;12088;53.078;8.720;2023-06-19T02:51:13;31.75;;;30.40;;
23814;SDS011;12088;53.078;8.720;2023-06-19T02:53:41;46.03;;;43.95;;
23814;SDS011;12088;53.078;8.720;2023-06-19T02:56:08;63.58;;;60.97;;
23814;SDS011;12088;53.078;8.720;2023-06-19T02:58:34;65.85;;;63.15;;
23814;SDS011;12088;53.078;8.720;2023-06-19T03:01:02;60.50;;;57.90;;
23814;SDS011;12088;53.078;8.720;2023-06-19T03:03:28;51.22;;;49.13;;
23814;SDS011;12088;53.078;8.720;2023-06-19T03:05:54;56.20;;;53.60;;
23814;SDS011;12088;53.078;8.720;2023-06-19T03:08:20;56.30;;;54.00;;
23814;SDS011;12088;53.078;8.720;2023-06-19T03:10:45;55.17;;;52.92;;
23814;SDS011;12088;53.078;8.720;2023-06-19T03:13:12;48.17;;;46.15;;
23814;SDS011;12088;53.078;8.720;2023-06-19T03:15:38;37.10;;;35.50;;
23814;SDS011;12088;53.078;8.720;2023-06-19T03:18:03;42.97;;;41.20;;
23814;SDS011;12088;53.078;8.720;2023-06-19T03:20:31;39.03;;;37.40;;
23814;SDS011;12088;53.078;8.720;2023-06-19T03:22:57;27.27;;;26.17;;
23814;SDS011;12088;53.078;8.720;2023-06-19T03:25:23;34.47;;;31.42;;
23814;SDS011;12088;53.078;8.720;2023-06-19T03:27:48;36.33;;;34.83;;
23814;SDS011;12088;53.078;8.720;2023-06-19T03:30:14;36.70;;;35.20;;
23814;SDS011;12088;53.078;8.720;2023-06-19T03:32:43;40.33;;;38.65;;
23814;SDS011;12088;53.078;8.720;2023-06-19T03:35:08;71.72;;;68.78;;
23814;SDS011;12088;53.078;8.720;2023-06-19T03:37:35;41.10;;;39.33;;
23814;SDS011;12088;53.078;8.720;2023-06-19T03:40:00;39.20;;;37.63;;
23814;SDS011;12088;53.078;8.720;2023-06-19T03:42:26;55.30;;;52.88;;
23814;SDS011;12088;53.078;8.720;2023-06-19T03:44:51;33.28;;;31.75;;
23814;SDS011;12088;53.078;8.720;2023-06-19T03:47:17;48.00;;;46.03;;
23814;SDS011;12088;53.078;8.720;2023-06-19T03:49:42;21.90;;;20.92;;
23814;SDS011;12088;53.078;8.720;2023-06-19T03:52:08;14.20;;;13.60;;
23814;SDS011;12088;53.078;8.720;2023-06-19T03:54:33;15.23;;;14.20;;
23814;SDS011;12088;53.078;8.720;2023-06-19T03:57:02;29.60;;;28.40;;
23814;SDS011;12088;53.078;8.720;2023-06-19T03:59:28;22.25;;;21.08;;
23814;SDS011;12088;53.078;8.720;2023-06-19T04:01:53;30.58;;;29.30;;
23814;SDS011;12088;53.078;8.720;2023-06-19T04:04:19;30.80;;;29.45;;
23814;SDS011;12088;53.078;8.720;2023-06-19T04:06:44;40.63;;;39.00;;
23814;SDS011;12088;53.078;8.720;2023-06-19T04:09:11;41.70;;;40.03;;
23814;SDS011;12088;53.078;8.720;2023-06-19T04:11:37;48.15;;;46.05;;
23814;SDS011;12088;53.078;8.720;2023-06-19T04:14:03;80.60;;;77.22;;
23814;SDS011;12088;53.078;8.720;2023-06-19T04:16:28;108.57;;;103.95;;
23814;SDS011;12088;53.078;8.720;2023-06-19T04:18:54;170.05;;;162.93;;
23814;SDS011;12088;53.078;8.720;2023-06-19T04:21:19;112.07;;;107.53;;
23814;SDS011;12088;53.078;8.720;2023-06-19T04:23:44;180.07;;;172.77;;
23814;SDS011;12088;53.078;8.720;2023-06-19T04:26:10;114.78;;;110.07;;
23814;SDS011;12088;53.078;8.720;2023-06-19T04:28:35;89.78;;;85.97;;
23814;SDS011;12088;53.078;8.720;2023-06-19T04:31:01;69.43;;;66.63;;
23814;SDS011;12088;53.078;8.720;2023-06-19T04:33:29;46.35;;;44.38;;
23814;SDS011;12088;53.078;8.720;2023-06-19T04:35:55;28.90;;;27.60;;
23814;SDS011;12088;53.078;8.720;2023-06-19T04:38:21;41.13;;;39.38;;
23814;SDS011;12088;53.078;8.720;2023-06-19T04:40:49;29.88;;;28.58;;
23814;SDS011;12088;53.078;8.720;2023-06-19T04:43:17;37.33;;;35.78;;
23814;SDS011;12088;53.078;8.720;2023-06-19T04:45:43;42.42;;;40.65;;
23814;SDS011;12088;53.078;8.720;2023-06-19T04:48:09;47.33;;;44.95;;
23814;SDS011;12088;53.078;8.720;2023-06-19T04:50:34;43.38;;;41.53;;
23814;SDS011;12088;53.078;8.720;2023-06-19T04:53:00;35.50;;;34.00;;
23814;SDS011;12088;53.078;8.720;2023-06-19T04:55:25;26.48;;;25.42;;
23814;SDS011;12088;53.078;8.720;2023-06-19T04:57:51;19.77;;;18.98;;
23814;SDS011;12088;53.078;8.720;2023-06-19T05:00:17;51.72;;;49.55;;
23814;SDS011;12088;53.078;8.720;2023-06-19T05:02:44;55.17;;;52.92;;
23814;SDS011;12088;53.078;8.720;2023-06-19T05:05:12;63.95;;;61.30;;
23814;SDS011;12088;53.078;8.720;2023-06-19T05:07:41;54.63;;;52.33;;
23814;SDS011;12088;53.078;8.720;2023-06-19T05:10:07;89.47;;;85.85;;
23814;SDS011;12088;53.078;8.720;2023-06-19T05:12:34;64.82;;;62.22;;
23814;SDS011;12088;53.078;8.720;2023-06-19T05:15:00;52.22;;;50.13;;
23814;SDS011;12088;53.078;8.720;2023-06-19T05:17:25;51.95;;;49.83;;
23814;SDS011;12088;53.078;8.720;2023-06-19T05:19:51;54.17;;;51.78;;
23814;SDS011;12088;53.078;8.720;2023-06-19T05:22:16;45.33;;;43.33;;
23814;SDS011;12088;53.078;8.720;2023-06-19T05:24:43;49.85;;;47.80;;
23814;SDS011;12088;53.078;8.720;2023-06-19T05:27:09;46.42;;;44.45;;
23814;SDS011;12088;53.078;8.720;2023-06-19T05:29:34;36.53;;;35.03;;
23814;SDS011;12088;53.078;8.720;2023-06-19T05:32:00;51.45;;;49.33;;
23814;SDS011;12088;53.078;8.720;2023-06-19T05:34:25;36.78;;;35.15;;
23814;SDS011;12088;53.078;8.720;2023-06-19T05:36:51;45.72;;;43.78;;
23814;SDS011;12088;53.078;8.720;2023-06-19T05:39:16;43.75;;;41.92;;
23814;SDS011;12088;53.078;8.720;2023-06-19T05:41:43;41.13;;;39.45;;
23814;SDS011;12088;53.078;8.720;2023-06-19T05:44:10;42.60;;;40.83;;
23814;SDS011;12088;53.078;8.720;2023-06-19T05:46:40;56.50;;;54.20;;
23814;SDS011;12088;53.078;8.720;2023-06-19T05:49:05;40.22;;;38.42;;
23814;SDS011;12088;53.078;8.720;2023-06-19T05:51:31;51.88;;;49.40;;
23814;SDS011;12088;53.078;8.720;2023-06-19T05:53:56;45.88;;;43.97;;
23814;SDS011;12088;53.078;8.720;2023-06-19T05:56:26;57.53;;;55.13;;
23814;SDS011;12088;53.078;8.720;2023-06-19T05:58:51;46.95;;;44.97;;
23814;SDS011;12088;53.078;8.720;2023-06-19T06:01:17;63.95;;;61.22;;
23814;SDS011;12088;53.078;8.720;2023-06-19T06:03:42;54.00;;;51.65;;
23814;SDS011;12088;53.078;8.720;2023-06-19T06:06:08;70.82;;;67.88;;
23814;SDS011;12088;53.078;8.720;2023-06-19T06:08:33;70.70;;;67.72;;
23814;SDS011;12088;53.078;8.720;2023-06-19T06:10:59;50.65;;;48.47;;
23814;SDS011;12088;53.078;8.720;2023-06-19T06:13:25;66.50;;;63.65;;
23814;SDS011;12088;53.078;8.720;2023-06-19T06:15:50;65.90;;;63.08;;
23814;SDS011;12088;53.078;8.720;2023-06-19T06:18:16;72.90;;;69.90;;
23814;SDS011;12088;53.078;8.720;2023-06-19T06:20:41;81.65;;;78.28;;
23814;SDS011;12088;53.078;8.720;2023-06-19T06:23:07;56.90;;;54.55;;
23814;SDS011;12088;53.078;8.720;2023-06-19T06:25:32;65.50;;;62.80;;
23814;SDS011;12088;53.078;8.720;2023-06-19T06:27:58;158.25;;;152.00;;
23814;SDS011;12088;53.078;8.720;2023-06-19T06:30:24;137.15;;;131.65;;
23814;SDS011;12088;53.078;8.720;2023-06-19T06:32:49;86.75;;;83.15;;
23814;SDS011;12088;53.078;8.720;2023-06-19T06:35:16;87.80;;;83.75;;
23814;SDS011;12088;53.078;8.720;2023-06-19T06:37:41;29.17;;;27.98;;
23814;SDS011;12088;53.078;8.720;2023-06-19T06:40:09;38.90;;;37.28;;
23814;SDS011;12088;53.078;8.720;2023-06-19T06:42:35;46.40;;;44.22;;
23814;SDS011;12088;53.078;8.720;2023-06-19T06:45:01;27.05;;;25.95;;
23814;SDS011;12088;53.078;8.720;2023-06-19T06:47:27;28.02;;;26.83;;
23814;SDS011;12088;53.078;8.720;2023-06-19T06:49:53;98.13;;;93.85;;
23814;SDS011;12088;53.078;8.720;2023-06-19T06:52:18;73.93;;;70.82;;
23814;SDS011;12088;53.078;8.720;2023-06-19T06:54:44;33.17;;;31.80;;
23814;SDS011;12088;53.078;8.720;2023-06-19T06:57:10;71.97;;;69.00;;
23814;SDS011;12088;53.078;8.720;2023-06-19T06:59:35;56.08;;;53.67;;
23814;SDS011;12088;53.078;8.720;2023-06-19T07:02:00;182.82;;;175.10;;
23814;SDS011;12088;53.078;8.720;2023-06-19T07:04:26;144.85;;;138.75;;
23814;SDS011;12088;53.078;8.720;2023-06-19T07:06:51;135.27;;;129.70;;
23814;SDS011;12088;53.078;8.720;2023-06-19T07:09:17;161.90;;;155.20;;
23814;SDS011;12088;53.078;8.720;2023-06-19T07:11:43;71.50;;;68.47;;
23814;SDS011;12088;53.078;8.720;2023-06-19T07:14:08;52.40;;;49.97;;
23814;SDS011;12088;53.078;8.720;2023-06-19T07:16:34;120.53;;;115.22;;
23814;SDS011;12088;53.078;8.720;2023-06-19T07:18:59;50.63;;;48.40;;
23814;SDS011;12088;53.078;8.720;2023-06-19T07:21:25;73.88;;;70.25;;
23814;SDS011;12088;53.078;8.720;2023-06-19T07:23:53;86.65;;;83.00;;
23814;SDS011;12088;53.078;8.720;2023-06-19T07:26:19;88.72;;;84.70;;
23814;SDS011;12088;53.078;8.720;2023-06-19T07:28:45;48.80;;;46.58;;
23814;SDS011;12088;53.078;8.720;2023-06-19T07:31:10;64.95;;;62.28;;
23814;SDS011;12088;53.078;8.720;2023-06-19T07:33:35;55.20;;;52.78;;
23814;SDS011;12088;53.078;8.720;2023-06-19T07:36:01;94.35;;;90.50;;
23814;SDS011;12088;53.078;8.720;2023-06-19T07:38:27;167.20;;;160.35;;
23814;SDS011;12088;53.078;8.720;2023-06-19T07:40:53;128.85;;;123.57;;
23814;SDS011;12088;53.078;8.720;2023-06-19T07:43:18;128.35;;;123.00;;
23814;SDS011;12088;53.078;8.720;2023-06-19T07:45:44;150.27;;;144.00;;
23814;SDS011;12088;53.078;8.720;2023-06-19T07:48:09;120.57;;;115.47;;
23814;SDS011;12088;53.078;8.720;2023-06-19T07:50:35;162.63;;;155.65;;
23814;SDS011;12088;53.078;8.720;2023-06-19T07:53:00;241.52;;;231.35;;
23814;SDS011;12088;53.078;8.720;2023-06-19T07:55:26;195.82;;;187.80;;
23814;SDS011;12088;53.078;8.720;2023-06-19T07:57:51;175.40;;;168.13;;
23814;SDS011;12088;53.078;8.720;2023-06-19T08:00:18;174.40;;;167.00;;
23814;SDS011;12088;53.078;8.720;2023-06-19T08:02:43;246.82;;;236.15;;
23814;SDS011;12088;53.078;8.720;2023-06-19T08:05:09;279.25;;;266.95;;
23814;SDS011;12088;53.078;8.720;2023-06-19T08:07:35;180.05;;;172.23;;
23814;SDS011;12088;53.078;8.720;2023-06-19T08:10:01;343.42;;;328.35;;
23814;SDS011;12088;53.078;8.720;2023-06-19T08:12:29;153.75;;;147.23;;
23814;SDS011;12088;53.078;8.720;2023-06-19T08:14:54;84.55;;;81.07;;
23814;SDS011;12088;53.078;8.720;2023-06-19T08:17:20;124.07;;;118.95;;
23814;SDS011;12088;53.078;8.720;2023-06-19T08:19:45;54.45;;;52.15;;
23814;SDS011;12088;53.078;8.720;2023-06-19T08:22:12;91.43;;;87.65;;
23814;SDS011;12088;53.078;8.720;2023-06-19T08:24:37;103.45;;;99.10;;
23814;SDS011;12088;53.078;8.720;2023-06-19T08:27:05;172.35;;;164.80;;
23814;SDS011;12088;53.078;8.720;2023-06-19T08:29:30;104.40;;;100.13;;
23814;SDS011;12088;53.078;8.720;2023-06-19T08:31:56;98.10;;;94.07;;
23814;SDS011;12088;53.078;8.720;2023-06-19T08:34:21;113.68;;;108.97;;
23814;SDS011;12088;53.078;8.720;2023-06-19T08:36:47;116.85;;;112.05;;
23814;SDS011;12088;53.078;8.720;2023-06-19T08:39:13;89.95;;;86.20;;
23814;SDS011;12088;53.078;8.720;2023-06-19T08:41:38;107.63;;;103.15;;
23814;SDS011;12088;53.078;8.720;2023-06-19T08:44:05;127.05;;;121.90;;
23814;SDS011;12088;53.078;8.720;2023-06-19T08:46:30;59.53;;;57.00;;
23814;SDS011;12088;53.078;8.720;2023-06-19T08:48:56;50.35;;;48.20;;
23814;SDS011;12088;53.078;8.720;2023-06-19T08:51:22;92.78;;;88.78;;
23814;SDS011;12088;53.078;8.720;2023-06-19T08:53:48;131.10;;;125.70;;
23814;SDS011;12088;53.078;8.720;2023-06-19T08:56:19;146.45;;;140.15;;
23814;SDS011;12088;53.078;8.720;2023-06-19T08:58:44;205.55;;;196.70;;
23814;SDS011;12088;53.078;8.720;2023-06-19T09:01:10;108.53;;;103.93;;
23814;SDS011;12088;53.078;8.720;2023-06-19T09:03:35;87.68;;;84.10;;
23814;SDS011;12088;53.078;8.720;2023-06-19T09:06:06;132.68;;;127.13;;
23814;SDS011;12088;53.078;8.720;2023-06-19T09:08:32;99.32;;;95.22;;
23814;SDS011;12088;53.078;8.720;2023-06-19T09:10:58;150.25;;;144.07;;
23814;SDS011;12088;53.078;8.720;2023-06-19T09:13:25;174.07;;;166.85;;
23814;SDS011;12088;53.078;8.720;2023-06-19T09:16:03;178.55;;;171.05;;
23814;SDS011;12088;53.078;8.720;2023-06-19T09:18:30;164.80;;;157.77;;
23814;SDS011;12088;53.078;8.720;2023-06-19T09:20:57;137.50;;;131.65;;
23814;SDS011;12088;53.078;8.720;2023-06-19T09:23:23;216.10;;;206.85;;
23814;SDS011;12088;53.078;8.720;2023-06-19T09:25:50;192.18;;;183.45;;
23814;SDS011;12088;53.078;8.720;2023-06-19T09:28:27;178.30;;;170.75;;
23814;SDS011;12088;53.078;8.720;2023-06-19T09:31:00;150.93;;;144.60;;
23814;SDS011;12088;53.078;8.720;2023-06-19T09:33:28;141.23;;;135.40;;
23814;SDS011;12088;53.078;8.720;2023-06-19T09:35:55;182.30;;;174.52;;
23814;SDS011;12088;53.078;8.720;2023-06-19T09:38:29;130.95;;;125.65;;
23814;SDS011;12088;53.078;8.720;2023-06-19T09:40:56;243.90;;;233.57;;
23814;SDS011;12088;53.078;8.720;2023-06-19T09:43:29;219.23;;;210.20;;
23814;SDS011;12088;53.078;8.720;2023-06-19T09:46:00;185.90;;;177.90;;
23814;SDS011;12088;53.078;8.720;2023-06-19T09:48:28;176.98;;;169.60;;
23814;SDS011;12088;53.078;8.720;2023-06-19T09:51:06;165.73;;;158.95;;
23814;SDS011;12088;53.078;8.720;2023-06-19T09:53:44;179.05;;;171.02;;
23814;SDS011;12088;53.078;8.720;2023-06-19T09:56:11;159.18;;;152.60;;
23814;SDS011;12088;53.078;8.720;2023-06-19T09:58:37;126.18;;;120.82;;
23814;SDS011;12088;53.078;8.720;2023-06-19T10:01:04;114.70;;;110.00;;
23814;SDS011;12088;53.078;8.720;2023-06-19T10:03:31;87.63;;;84.05;;
23814;SDS011;12088;53.078;8.720;2023-06-19T10:05:58;103.88;;;99.57;;
23814;SDS011;12088;53.078;8.720;2023-06-19T10:08:32;253.50;;;243.15;;
23814;SDS011;12088;53.078;8.720;2023-06-19T10:11:04;135.60;;;130.13;;
23814;SDS011;12088;53.078;8.720;2023-06-19T10:13:34;62.10;;;59.55;;
23814;SDS011;12088;53.078;8.720;2023-06-19T10:16:01;145.88;;;139.80;;
23814;SDS011;12088;53.078;8.720;2023-06-19T10:18:27;137.18;;;131.50;;
23814;SDS011;12088;53.078;8.720;2023-06-19T10:20:54;91.78;;;88.05;;
23814;SDS011;12088;53.078;8.720;2023-06-19T10:23:21;124.85;;;119.80;;
23814;SDS011;12088;53.078;8.720;2023-06-19T10:25:54;216.60;;;208.05;;
23814;SDS011;12088;53.078;8.720;2023-06-19T10:28:28;120.45;;;115.55;;
23814;SDS011;12088;53.078;8.720;2023-06-19T10:30:56;110.57;;;105.93;;
23814;SDS011;12088;53.078;8.720;2023-06-19T10:33:23;101.35;;;97.10;;
23814;SDS011;12088;53.078;8.720;2023-06-19T10:35:50;153.38;;;147.20;;
23814;SDS011;12088;53.078;8.720;2023-06-19T10:38:16;105.63;;;101.32;;
23814;SDS011;12088;53.078;8.720;2023-06-19T10:40:42;111.85;;;107.38;;
23814;SDS011;12088;53.078;8.720;2023-06-19T10:43:09;137.55;;;131.88;;
23814;SDS011;12088;53.078;8.720;2023-06-19T10:45:34;89.28;;;85.38;;
23814;SDS011;12088;53.078;8.720;2023-06-19T10:48:01;68.03;;;65.15;;
23814;SDS011;12088;53.078;8.720;2023-06-19T10:50:27;60.60;;;58.05;;
23814;SDS011;12088;53.078;8.720;2023-06-19T10:52:53;91.78;;;87.80;;
23814;SDS011;12088;53.078;8.720;2023-06-19T10:55:21;134.32;;;128.70;;
23814;SDS011;12088;53.078;8.720;2023-06-19T10:57:48;40.92;;;39.22;;
23814;SDS011;12088;53.078;8.720;2023-06-19T11:02:50;90.10;;;86.30;;
23814;SDS011;12088;53.078;8.720;2023-06-19T11:05:15;184.48;;;176.82;;
23814;SDS011;12088;53.078;8.720;2023-06-19T11:07:41;231.07;;;221.43;;
23814;SDS011;12088;53.078;8.720;2023-06-19T11:10:07;323.77;;;309.92;;
23814;SDS011;12088;53.078;8.720;2023-06-19T11:12:43;360.90;;;344.52;;
23814;SDS011;12088;53.078;8.720;2023-06-19T11:15:09;374.67;;;357.70;;
23814;SDS011;12088;53.078;8.720;2023-06-19T11:17:35;376.25;;;358.48;;
23814;SDS011;12088;53.078;8.720;2023-06-19T11:20:00;354.05;;;337.10;;
23814;SDS011;12088;53.078;8.720;2023-06-19T11:22:39;266.05;;;253.95;;
23814;SDS011;12088;53.078;8.720;2023-06-19T11:25:06;321.13;;;307.15;;
23814;SDS011;12088;53.078;8.720;2023-06-19T11:27:32;223.48;;;214.32;;
23814;SDS011;12088;53.078;8.720;2023-06-19T11:29:59;347.35;;;331.45;;
23814;SDS011;12088;53.078;8.720;2023-06-19T11:32:32;296.67;;;284.48;;
23814;SDS011;12088;53.078;8.720;2023-06-19T11:35:04;211.93;;;203.00;;
23814;SDS011;12088;53.078;8.720;2023-06-19T11:37:32;172.48;;;165.63;;
23814;SDS011;12088;53.078;8.720;2023-06-19T11:39:58;149.98;;;143.63;;
23814;SDS011;12088;53.078;8.720;2023-06-19T11:42:24;142.75;;;136.98;;
23814;SDS011;12088;53.078;8.720;2023-06-19T11:47:26;136.75;;;130.77;;
23814;SDS011;12088;53.078;8.720;2023-06-19T11:49:55;54.08;;;51.83;;
23814;SDS011;12088;53.078;8.720;2023-06-19T11:52:20;119.32;;;114.22;;
23814;SDS011;12088;53.078;8.720;2023-06-19T11:54:46;78.80;;;75.60;;
23814;SDS011;12088;53.078;8.720;2023-06-19T11:57:11;104.45;;;100.00;;
23814;SDS011;12088;53.078;8.720;2023-06-19T11:59:38;110.30;;;105.75;;
23814;SDS011;12088;53.078;8.720;2023-06-19T12:02:05;121.55;;;116.57;;
23814;SDS011;12088;53.078;8.720;2023-06-19T12:04:31;104.45;;;100.13;;
23814;SDS011;12088;53.078;8.720;2023-06-19T12:06:56;83.05;;;79.63;;
23814;SDS011;12088;53.078;8.720;2023-06-19T12:09:22;180.85;;;173.55;;
23814;SDS011;12088;53.078;8.720;2023-06-19T12:11:48;170.30;;;163.20;;
23814;SDS011;12088;53.078;8.720;2023-06-19T12:14:31;123.55;;;118.50;;
23814;SDS011;12088;53.078;8.720;2023-06-19T12:16:57;130.70;;;125.28;;
23814;SDS011;12088;53.078;8.720;2023-06-19T12:19:22;137.30;;;131.43;;
23814;SDS011;12088;53.078;8.720;2023-06-19T12:21:48;116.35;;;111.53;;
23814;SDS011;12088;53.078;8.720;2023-06-19T12:24:13;151.95;;;145.52;;
23814;SDS011;12088;53.078;8.720;2023-06-19T12:26:39;140.07;;;134.38;;
23814;SDS011;12088;53.078;8.720;2023-06-19T12:29:05;30.80;;;29.30;;
23814;SDS011;12088;53.078;8.720;2023-06-19T12:31:32;101.45;;;97.30;;
23814;SDS011;12088;53.078;8.720;2023-06-19T12:33:59;95.95;;;92.10;;
23814;SDS011;12088;53.078;8.720;2023-06-19T12:36:26;110.53;;;106.07;;
23814;SDS011;12088;53.078;8.720;2023-06-19T12:38:52;67.53;;;64.65;;
23814;SDS011;12088;53.078;8.720;2023-06-19T12:41:18;24.58;;;23.58;;
23814;SDS011;12088;53.078;8.720;2023-06-19T12:43:44;44.85;;;42.97;;
23814;SDS011;12088;53.078;8.720;2023-06-19T12:46:10;53.58;;;51.40;;
23814;SDS011;12088;53.078;8.720;2023-06-19T12:48:35;66.05;;;63.30;;
23814;SDS011;12088;53.078;8.720;2023-06-19T12:51:01;54.67;;;52.38;;
23814;SDS011;12088;53.078;8.720;2023-06-19T12:53:27;60.20;;;57.70;;
23814;SDS011;12088;53.078;8.720;2023-06-19T12:55:56;69.25;;;66.15;;
23814;SDS011;12088;53.078;8.720;2023-06-19T12:58:22;70.32;;;67.55;;
23814;SDS011;12088;53.078;8.720;2023-06-19T13:00:48;69.57;;;66.82;;
23814;SDS011;12088;53.078;8.720;2023-06-19T13:03:13;86.50;;;83.07;;
23814;SDS011;12088;53.078;8.720;2023-06-19T13:05:39;72.00;;;69.05;;
23814;SDS011;12088;53.078;8.720;2023-06-19T13:08:04;77.53;;;74.43;;
23814;SDS011;12088;53.078;8.720;2023-06-19T13:10:30;78.88;;;75.72;;
23814;SDS011;12088;53.078;8.720;2023-06-19T13:12:55;95.45;;;91.38;;
23814;SDS011;12088;53.078;8.720;2023-06-19T13:15:23;92.00;;;88.18;;
23814;SDS011;12088;53.078;8.720;2023-06-19T13:17:49;69.72;;;66.80;;
23814;SDS011;12088;53.078;8.720;2023-06-19T13:20:15;54.35;;;52.05;;
23814;SDS011;12088;53.078;8.720;2023-06-19T13:22:41;92.55;;;88.78;;
23814;SDS011;12088;53.078;8.720;2023-06-19T13:25:07;114.72;;;109.95;;
23814;SDS011;12088;53.078;8.720;2023-06-19T13:27:32;176.27;;;168.77;;
23814;SDS011;12088;53.078;8.720;2023-06-19T13:29:59;197.88;;;189.50;;
23814;SDS011;12088;53.078;8.720;2023-06-19T13:32:39;128.85;;;123.45;;
23814;SDS011;12088;53.078;8.720;2023-06-19T13:35:06;178.23;;;170.63;;
23814;SDS011;12088;53.078;8.720;2023-06-19T13:37:33;131.05;;;125.45;;
23814;SDS011;12088;53.078;8.720;2023-06-19T13:40:00;148.52;;;142.40;;
23814;SDS011;12088;53.078;8.720;2023-06-19T13:42:26;127.38;;;122.18;;
23814;SDS011;12088;53.078;8.720;2023-06-19T13:44:52;156.30;;;149.77;;
23814;SDS011;12088;53.078;8.720;2023-06-19T13:47:17;129.43;;;124.15;;
23814;SDS011;12088;53.078;8.720;2023-06-19T13:49:43;187.90;;;180.00;;
23814;SDS011;12088;53.078;8.720;2023-06-19T13:52:08;161.65;;;155.15;;
23814;SDS011;12088;53.078;8.720;2023-06-19T13:54:34;136.98;;;131.18;;
23814;SDS011;12088;53.078;8.720;2023-06-19T13:56:59;223.10;;;213.60;;
23814;SDS011;12088;53.078;8.720;2023-06-19T13:59:25;143.55;;;137.27;;
23814;SDS011;12088;53.078;8.720;2023-06-19T14:01:50;160.07;;;153.25;;
23814;SDS011;12088;53.078;8.720;2023-06-19T14:04:16;87.50;;;83.93;;
23814;SDS011;12088;53.078;8.720;2023-06-19T14:06:41;220.93;;;211.60;;
23814;SDS011;12088;53.078;8.720;2023-06-19T14:09:08;109.70;;;105.28;;
23814;SDS011;12088;53.078;8.720;2023-06-19T14:11:34;123.05;;;118.07;;
23814;SDS011;12088;53.078;8.720;2023-06-19T14:13:59;58.17;;;55.67;;